createdAt,value
2023-03-17T00:01:56.856Z,10.68
2023-03-17T00:04:27.638Z,10.65
2023-03-17T00:06:56.651Z,10.57
2023-03-17T00:09:25.489Z,10.63
2023-03-17T00:11:53.584Z,10.54
2023-03-17T00:14:21.772Z,10.50
2023-03-17T00:16:52.544Z,10.53
2023-03-17T00:19:29.892Z,10.61
2023-03-17T00:21:59.145Z,10.55
2023-03-17T00:24:27.445Z,10.54
2023-03-17T00:26:55.493Z,10.51
2023-03-17T00:29:24.041Z,10.47
2023-03-17T00:31:52.071Z,10.54
2023-03-17T00:34:23.983Z,10.52
2023-03-17T00:36:53.547Z,10.58
2023-03-17T00:39:25.279Z,10.52
2023-03-17T00:41:55.638Z,10.66
2023-03-17T00:44:24.087Z,10.64
2023-03-17T00:46:52.542Z,10.61
2023-03-17T00:49:24.141Z,10.56
2023-03-17T00:51:54.282Z,10.58
2023-03-17T00:54:24.144Z,10.56
2023-03-17T00:56:53.647Z,10.57
2023-03-17T00:59:29.804Z,10.59
2023-03-17T01:02:00.340Z,10.56
2023-03-17T01:04:35.610Z,10.55
2023-03-17T01:07:06.862Z,10.53
2023-03-17T01:09:34.992Z,10.51
2023-03-17T01:12:03.040Z,10.46
2023-03-17T01:14:31.103Z,10.53
2023-03-17T01:17:02.113Z,10.48
2023-03-17T01:19:30.385Z,10.51
2023-03-17T01:21:59.732Z,10.39
2023-03-17T01:24:29.940Z,10.46
2023-03-17T01:26:58.123Z,10.44
2023-03-17T01:29:27.058Z,10.39
2023-03-17T01:31:55.552Z,10.41
2023-03-17T01:34:23.946Z,10.41
2023-03-17T01:36:53.635Z,10.30
2023-03-17T01:39:21.798Z,10.30
2023-03-17T01:41:56.650Z,10.34
2023-03-17T01:44:25.670Z,10.31
2023-03-17T01:46:54.489Z,10.30
2023-03-17T01:49:29.301Z,10.26
2023-03-17T01:52:04.806Z,10.26
2023-03-17T01:54:40.729Z,10.26
2023-03-17T01:57:18.367Z,10.25
2023-03-17T01:59:51.380Z,10.27
2023-03-17T02:02:46.406Z,10.17
2023-03-17T02:05:18.806Z,10.20
2023-03-17T02:07:47.121Z,10.18
2023-03-17T02:10:19.505Z,10.25
2023-03-17T02:12:53.567Z,10.16
2023-03-17T02:15:22.650Z,10.21
2023-03-17T02:17:51.806Z,10.18
2023-03-17T02:21:17.367Z,10.17
2023-03-17T02:23:46.905Z,10.21
2023-03-17T02:26:15.143Z,10.25
2023-03-17T02:28:46.113Z,10.20
2023-03-17T02:31:15.494Z,10.23
2023-03-17T02:33:45.186Z,10.19
2023-03-17T02:36:13.880Z,10.23
2023-03-17T02:38:42.190Z,10.16
2023-03-17T02:41:11.778Z,10.17
2023-03-17T02:43:41.306Z,10.18
2023-03-17T02:46:09.568Z,10.19
2023-03-17T02:48:39.655Z,10.10
2023-03-17T02:51:08.425Z,10.04
2023-03-17T02:53:36.630Z,10.14
2023-03-17T02:56:05.594Z,10.08
2023-03-17T02:58:34.951Z,10.01
2023-03-17T03:01:03.606Z,10.06
2023-03-17T03:03:32.100Z,10.09
2023-03-17T03:06:03.032Z,10.12
2023-03-17T03:08:32.066Z,10.14
2023-03-17T03:11:02.487Z,10.12
2023-03-17T03:13:30.848Z,10.13
2023-03-17T03:16:00.406Z,10.13
2023-03-17T03:18:29.006Z,10.15
2023-03-17T03:20:57.085Z,10.18
2023-03-17T03:23:25.072Z,10.17
2023-03-17T03:25:53.141Z,10.10
2023-03-17T03:28:21.394Z,10.14
2023-03-17T03:30:49.872Z,10.19
2023-03-17T03:33:19.830Z,10.11
2023-03-17T03:35:48.296Z,10.12
2023-03-17T03:38:16.548Z,10.07
2023-03-17T03:40:45.781Z,10.09
2023-03-17T03:43:22.760Z,9.97
2023-03-17T03:45:52.060Z,9.91
2023-03-17T03:48:22.684Z,9.92
2023-03-17T03:50:50.996Z,9.81
2023-03-17T03:53:19.077Z,9.80
2023-03-17T03:55:47.360Z,9.82
2023-03-17T03:58:15.874Z,9.88
2023-03-17T04:00:44.135Z,9.85
2023-03-17T04:03:12.276Z,9.85
2023-03-17T04:05:41.830Z,9.80
2023-03-17T04:08:11.064Z,9.80
2023-03-17T04:10:39.087Z,9.76
2023-03-17T04:13:08.402Z,9.78
2023-03-17T04:15:36.614Z,9.77
2023-03-17T04:18:05.242Z,9.73
2023-03-17T04:20:33.467Z,9.76
2023-03-17T04:23:02.942Z,9.68
2023-03-17T04:25:31.436Z,9.69
2023-03-17T04:27:59.726Z,9.73
2023-03-17T04:30:28.019Z,9.76
2023-03-17T04:32:56.241Z,9.73
2023-03-17T04:35:24.341Z,9.75
2023-03-17T04:37:52.496Z,9.73
2023-03-17T04:40:22.513Z,9.82
2023-03-17T04:42:51.115Z,9.85
2023-03-17T04:45:19.344Z,9.84
2023-03-17T04:47:50.961Z,9.79
2023-03-17T04:50:19.214Z,9.86
2023-03-17T04:52:47.292Z,9.86
2023-03-17T04:55:15.482Z,9.83
2023-03-17T04:57:45.173Z,9.84
2023-03-17T05:00:15.708Z,9.82
2023-03-17T05:02:44.129Z,9.84
2023-03-17T05:05:12.247Z,9.82
2023-03-17T05:07:41.531Z,9.82
2023-03-17T05:10:12.254Z,9.83
2023-03-17T05:12:40.255Z,9.75
2023-03-17T05:15:11.060Z,9.78
2023-03-17T05:17:39.113Z,9.71
2023-03-17T05:20:09.405Z,9.77
2023-03-17T05:22:37.999Z,9.76
2023-03-17T05:25:06.913Z,9.79
2023-03-17T05:27:35.424Z,9.75
2023-03-17T05:30:04.304Z,9.77
2023-03-17T05:32:33.894Z,9.70
2023-03-17T05:35:02.211Z,9.68
2023-03-17T05:37:30.390Z,9.61
2023-03-17T05:39:59.389Z,9.56
2023-03-17T05:42:27.455Z,9.67
2023-03-17T05:44:55.488Z,9.70
2023-03-17T05:47:23.802Z,9.64
2023-03-17T05:49:53.982Z,9.73
2023-03-17T05:52:22.064Z,9.75
2023-03-17T05:54:51.927Z,9.78
2023-03-17T05:57:19.956Z,9.76
2023-03-17T05:59:48.618Z,9.73
2023-03-17T06:02:16.704Z,9.79
2023-03-17T06:04:44.748Z,9.81
2023-03-17T06:07:14.386Z,9.81
2023-03-17T06:09:42.635Z,9.81
2023-03-17T06:12:11.379Z,9.80
2023-03-17T06:14:39.432Z,9.83
2023-03-17T06:17:07.765Z,9.87
2023-03-17T06:19:36.394Z,9.90
2023-03-17T06:22:04.707Z,9.91
2023-03-17T06:24:34.465Z,9.90
2023-03-17T06:27:02.552Z,9.97
2023-03-17T06:29:30.841Z,9.90
2023-03-17T06:32:09.191Z,9.88
2023-03-17T06:34:45.556Z,9.95
2023-03-17T06:37:13.769Z,9.97
2023-03-17T06:39:43.473Z,10.05
2023-03-17T06:42:11.911Z,10.06
2023-03-17T06:44:39.888Z,10.20
2023-03-17T06:47:08.699Z,10.28
2023-03-17T06:49:37.009Z,10.33
2023-03-17T06:52:05.436Z,10.44
2023-03-17T06:54:33.464Z,10.53
2023-03-17T06:57:03.026Z,10.56
2023-03-17T06:59:31.544Z,11.35
2023-03-17T07:02:00.395Z,12.99
2023-03-17T07:04:28.691Z,14.85
2023-03-17T07:06:57.702Z,16.20
2023-03-17T07:09:25.771Z,16.84
2023-03-17T07:11:53.805Z,17.43
2023-03-17T07:14:23.101Z,18.13
2023-03-17T07:16:51.381Z,18.10
2023-03-17T07:19:24.622Z,18.45
2023-03-17T07:21:52.685Z,18.29
2023-03-17T07:24:20.786Z,17.46
2023-03-17T07:26:49.067Z,16.51
2023-03-17T07:29:17.538Z,15.62
2023-03-17T07:31:47.130Z,14.94
2023-03-17T07:34:15.491Z,14.42
2023-03-17T07:36:43.862Z,14.01
2023-03-17T07:39:12.784Z,13.70
2023-03-17T07:41:41.370Z,13.43
2023-03-17T07:44:12.567Z,13.22
2023-03-17T07:46:41.049Z,13.07
2023-03-17T07:49:16.337Z,12.99
2023-03-17T07:51:44.454Z,12.94
2023-03-17T07:54:15.092Z,12.92
2023-03-17T07:56:43.553Z,12.89
2023-03-17T07:59:12.042Z,12.88
2023-03-17T08:01:40.948Z,12.91
2023-03-17T08:04:10.833Z,12.94
2023-03-17T08:06:41.714Z,13.05
2023-03-17T08:09:12.016Z,13.07
2023-03-17T08:11:40.745Z,13.11
2023-03-17T08:14:09.510Z,13.21
2023-03-17T08:16:37.669Z,13.34
2023-03-17T08:19:06.661Z,13.43
2023-03-17T08:21:35.124Z,13.47
2023-03-17T08:24:05.837Z,13.57
2023-03-17T08:26:34.381Z,13.67
2023-03-17T08:29:04.496Z,13.62
2023-03-17T08:31:35.721Z,13.55
2023-03-17T08:34:04.929Z,13.69
2023-03-17T08:36:33.281Z,13.82
2023-03-17T08:39:01.957Z,13.91
2023-03-17T08:41:32.083Z,13.96
2023-03-17T08:44:00.202Z,14.11
2023-03-17T08:46:32.454Z,14.25
2023-03-17T08:49:02.024Z,14.39
2023-03-17T08:51:34.241Z,14.47
2023-03-17T08:54:02.392Z,14.57
2023-03-17T08:56:32.050Z,14.66
2023-03-17T08:59:00.447Z,14.75
2023-03-17T09:01:28.875Z,14.82
2023-03-17T09:03:57.399Z,14.95
2023-03-17T09:06:27.570Z,15.11
2023-03-17T09:08:56.027Z,15.23
2023-03-17T09:11:26.876Z,15.30
2023-03-17T09:13:56.953Z,15.37
2023-03-17T09:16:26.898Z,15.39
2023-03-17T09:18:55.200Z,15.49
2023-03-17T09:21:23.641Z,15.53
2023-03-17T09:23:51.984Z,15.58
2023-03-17T09:26:20.449Z,15.69
2023-03-17T09:28:48.925Z,15.68
2023-03-17T09:31:18.673Z,15.73
2023-03-17T09:33:47.453Z,15.87
2023-03-17T09:36:15.611Z,15.96
2023-03-17T09:38:43.815Z,16.00
2023-03-17T09:41:42.564Z,16.08
2023-03-17T09:44:22.941Z,16.37
2023-03-17T09:47:04.304Z,16.48
2023-03-17T09:49:44.702Z,16.53
2023-03-17T09:52:15.828Z,16.64
2023-03-17T09:54:46.467Z,16.82
2023-03-17T09:57:18.072Z,17.00
2023-03-17T09:59:51.764Z,17.14
2023-03-17T10:02:26.948Z,17.27
2023-03-17T10:04:56.128Z,17.38
2023-03-17T10:07:35.058Z,17.52
2023-03-17T10:10:13.451Z,17.61
2023-03-17T10:12:51.432Z,17.67
2023-03-17T10:15:38.317Z,17.71
2023-03-17T10:18:16.637Z,17.71
2023-03-17T10:20:53.261Z,17.69
2023-03-17T10:23:26.511Z,17.68
2023-03-17T10:25:58.311Z,17.76
2023-03-17T10:28:30.733Z,17.75
2023-03-17T10:31:12.600Z,17.70
2023-03-17T10:33:42.309Z,17.67
2023-03-17T10:36:12.437Z,17.71
2023-03-17T10:38:40.727Z,17.75
2023-03-17T10:41:14.769Z,17.81
2023-03-17T10:43:47.107Z,17.84
2023-03-17T10:46:22.144Z,17.84
2023-03-17T10:48:58.211Z,17.94
2023-03-17T10:51:32.296Z,18.04
2023-03-17T10:54:03.890Z,18.10
2023-03-17T10:56:43.754Z,18.16
2023-03-17T10:59:20.551Z,18.15
2023-03-17T11:01:54.168Z,18.17
2023-03-17T11:04:32.894Z,18.23
2023-03-17T11:07:07.670Z,18.27
2023-03-17T11:09:37.996Z,18.22
2023-03-17T11:12:19.971Z,18.16
2023-03-17T11:14:50.230Z,18.17
2023-03-17T11:17:28.968Z,18.18
2023-03-17T11:20:16.813Z,18.09
2023-03-17T11:22:53.592Z,18.06
2023-03-17T11:25:23.472Z,17.95
2023-03-17T11:28:00.104Z,17.96
2023-03-17T11:30:35.838Z,17.94
2023-03-17T11:33:14.727Z,17.94
2023-03-17T11:35:55.916Z,17.94
2023-03-17T11:38:29.070Z,17.96
2023-03-17T11:41:36.911Z,17.89
2023-03-17T11:44:57.669Z,17.93
2023-03-17T11:47:43.924Z,17.95
2023-03-17T11:50:28.211Z,17.99
2023-03-17T11:53:19.733Z,18.07
2023-03-17T11:55:51.677Z,18.07
2023-03-17T11:58:30.364Z,18.16
2023-03-17T12:01:01.462Z,18.09
2023-03-17T12:03:39.351Z,18.13
2023-03-17T12:06:17.965Z,18.16
2023-03-17T12:08:54.466Z,18.07
2023-03-17T12:11:29.714Z,18.12
2023-03-17T12:14:05.923Z,18.08
2023-03-17T12:16:45.862Z,18.10
2023-03-17T12:19:19.375Z,18.02
2023-03-17T12:21:54.142Z,18.07
2023-03-17T12:24:30.580Z,18.04
2023-03-17T12:27:03.735Z,18.10
2023-03-17T12:29:43.496Z,18.13
2023-03-17T12:32:20.911Z,18.12
2023-03-17T12:34:57.065Z,18.13
2023-03-17T12:37:30.048Z,18.09
2023-03-17T12:40:07.153Z,18.01
2023-03-17T12:42:43.449Z,18.01
2023-03-17T12:46:01.113Z,18.02
2023-03-17T12:49:03.175Z,17.93
2023-03-17T12:51:55.196Z,17.90
2023-03-17T12:54:28.773Z,17.92
2023-03-17T12:57:07.657Z,17.93
2023-03-17T12:59:37.556Z,17.93
2023-03-17T13:02:19.235Z,17.98
2023-03-17T13:04:58.125Z,17.96
2023-03-17T13:07:32.500Z,17.95
2023-03-17T13:10:40.015Z,17.93
2023-03-17T13:13:28.122Z,17.85
2023-03-17T13:16:00.440Z,18.01
2023-03-17T13:18:51.134Z,17.96
2023-03-17T13:21:26.328Z,18.04
2023-03-17T13:24:20.430Z,18.02
2023-03-17T13:26:56.351Z,18.04
2023-03-17T13:29:48.832Z,18.05
2023-03-17T13:32:39.205Z,17.98
2023-03-17T13:35:26.283Z,18.01
2023-03-17T13:38:39.722Z,17.95
2023-03-17T13:41:38.589Z,18.07
2023-03-17T13:44:22.412Z,18.09
2023-03-17T13:46:53.003Z,18.17
2023-03-17T13:49:28.218Z,18.15
2023-03-17T13:52:02.854Z,18.21
2023-03-17T13:54:34.786Z,18.17
2023-03-17T13:57:27.645Z,18.15
2023-03-17T14:00:03.841Z,18.19
2023-03-17T14:02:39.008Z,18.16
2023-03-17T14:05:09.735Z,18.20
2023-03-17T14:07:49.270Z,18.22
2023-03-17T14:10:21.821Z,18.18
2023-03-17T14:12:57.757Z,18.23
2023-03-17T14:15:32.415Z,18.26
2023-03-17T14:18:08.707Z,18.26
2023-03-17T14:20:36.845Z,18.29
2023-03-17T14:23:07.261Z,18.31
2023-03-17T14:25:37.552Z,18.38
2023-03-17T14:28:11.177Z,18.38
2023-03-17T14:30:40.542Z,18.43
2023-03-17T14:33:23.447Z,18.47
2023-03-17T14:35:54.295Z,18.48
2023-03-17T14:38:27.668Z,18.45
2023-03-17T14:41:06.180Z,18.40
2023-03-17T14:43:36.592Z,18.38
2023-03-17T14:46:07.567Z,18.41
2023-03-17T14:48:42.311Z,18.42
2023-03-17T14:51:19.094Z,18.42
2023-03-17T14:53:47.382Z,18.43
2023-03-17T14:56:15.860Z,18.45
2023-03-17T14:58:47.829Z,18.49
2023-03-17T15:01:19.502Z,18.56
2023-03-17T15:03:57.338Z,18.57
2023-03-17T15:06:28.276Z,18.61
2023-03-17T15:09:00.752Z,18.63
2023-03-17T15:11:38.189Z,18.59
2023-03-17T15:14:21.193Z,18.60
2023-03-17T15:16:51.773Z,18.56
2023-03-17T15:19:27.679Z,18.56
2023-03-17T15:22:00.246Z,18.54
2023-03-17T15:24:38.871Z,18.56
2023-03-17T15:27:15.189Z,18.58
2023-03-17T15:29:43.356Z,18.54
2023-03-17T15:32:15.197Z,18.55
2023-03-17T15:34:44.768Z,18.57
2023-03-17T15:37:19.724Z,18.57
2023-03-17T15:39:48.704Z,18.59
2023-03-17T15:42:21.760Z,18.56
2023-03-17T15:44:49.863Z,18.52
2023-03-17T15:47:20.958Z,18.54
2023-03-17T15:49:51.683Z,18.52
2023-03-17T15:52:24.818Z,18.49
2023-03-17T15:54:54.174Z,18.46
2023-03-17T15:57:22.270Z,18.43
2023-03-17T15:59:50.986Z,18.41
2023-03-17T16:02:29.816Z,18.38
2023-03-17T16:04:59.990Z,18.36
2023-03-17T16:07:28.348Z,18.32
2023-03-17T16:09:56.788Z,18.30
2023-03-17T16:12:25.818Z,18.27
2023-03-17T16:14:53.834Z,18.27
2023-03-17T16:17:28.870Z,18.25
2023-03-17T16:19:59.662Z,18.23
2023-03-17T16:22:40.510Z,18.20
2023-03-17T16:25:21.378Z,18.14
2023-03-17T16:27:50.271Z,18.13
2023-03-17T16:30:21.215Z,18.10
2023-03-17T16:32:50.636Z,18.08
2023-03-17T16:35:22.356Z,18.09
2023-03-17T16:37:54.153Z,18.03
2023-03-17T16:40:26.456Z,17.99
2023-03-17T16:42:56.927Z,17.94
2023-03-17T16:45:29.726Z,17.94
2023-03-17T16:47:58.695Z,17.88
2023-03-17T16:50:31.759Z,17.86
2023-03-17T16:53:00.812Z,17.81
2023-03-17T16:55:30.857Z,17.77
2023-03-17T16:58:04.337Z,17.74
2023-03-17T17:00:33.196Z,17.68
2023-03-17T17:03:01.767Z,17.65
2023-03-17T17:05:32.691Z,17.66
2023-03-17T17:08:01.254Z,17.59
2023-03-17T17:10:32.657Z,17.58
2023-03-17T17:13:01.861Z,17.51
2023-03-17T17:15:31.816Z,17.47
2023-03-17T17:18:04.846Z,17.44
2023-03-17T17:20:37.625Z,17.40
2023-03-17T17:23:08.089Z,17.35
2023-03-17T17:25:36.190Z,17.28
2023-03-17T17:28:04.844Z,17.21
2023-03-17T17:30:33.992Z,17.17
2023-03-17T17:33:03.090Z,17.12
2023-03-17T17:35:34.667Z,17.07
2023-03-17T17:38:03.581Z,17.03
2023-03-17T17:40:32.497Z,16.98
2023-03-17T17:43:00.903Z,16.92
2023-03-17T17:45:29.102Z,16.90
2023-03-17T17:47:57.253Z,16.84
2023-03-17T17:50:28.756Z,16.72
2023-03-17T17:53:04.772Z,16.66
2023-03-17T17:55:34.218Z,16.58
2023-03-17T17:58:02.566Z,16.39
2023-03-17T18:00:31.123Z,16.36
2023-03-17T18:02:59.633Z,16.28
2023-03-17T18:05:27.940Z,16.27
2023-03-17T18:07:58.234Z,16.25
2023-03-17T18:10:27.364Z,16.24
2023-03-17T18:12:56.122Z,16.22
2023-03-17T18:15:25.826Z,16.22
2023-03-17T18:17:54.364Z,16.19
2023-03-17T18:20:24.146Z,16.15
2023-03-17T18:22:53.017Z,16.10
2023-03-17T18:25:22.400Z,16.08
2023-03-17T18:27:50.660Z,16.06
2023-03-17T18:30:24.779Z,16.03
2023-03-17T18:32:56.248Z,16.00
2023-03-17T18:35:27.008Z,16.00
2023-03-17T18:37:56.990Z,15.96
2023-03-17T18:40:27.169Z,15.98
2023-03-17T18:42:55.780Z,15.93
2023-03-17T18:45:24.205Z,15.86
2023-03-17T18:47:52.348Z,15.85
2023-03-17T18:50:21.924Z,15.83
2023-03-17T18:52:50.674Z,15.78
2023-03-17T18:55:19.163Z,15.69
2023-03-17T18:57:48.675Z,15.56
2023-03-17T19:00:18.546Z,15.59
2023-03-17T19:02:47.838Z,15.59
2023-03-17T19:05:16.349Z,15.57
2023-03-17T19:07:44.451Z,15.57
2023-03-17T19:10:14.444Z,15.60
2023-03-17T19:12:43.531Z,15.59
2023-03-17T19:15:15.732Z,15.58
2023-03-17T19:17:44.027Z,15.56
2023-03-17T19:20:14.952Z,15.58
2023-03-17T19:22:43.705Z,15.55
2023-03-17T19:25:12.216Z,15.51
2023-03-17T19:27:41.245Z,15.43
2023-03-17T19:30:15.785Z,15.33
2023-03-17T19:32:43.971Z,15.28
2023-03-17T19:35:12.645Z,15.27
2023-03-17T19:37:40.689Z,15.19
2023-03-17T19:40:13.251Z,15.13
2023-03-17T19:42:41.579Z,14.87
2023-03-17T19:45:12.504Z,14.77
2023-03-17T19:47:41.079Z,14.85
2023-03-17T19:50:11.151Z,14.97
2023-03-17T19:52:39.209Z,14.99
2023-03-17T19:55:10.661Z,15.05
2023-03-17T19:57:38.779Z,15.06
2023-03-17T20:00:11.900Z,15.04
2023-03-17T20:02:41.819Z,14.93
2023-03-17T20:05:11.402Z,14.92
2023-03-17T20:07:39.571Z,14.90
2023-03-17T20:10:10.045Z,14.82
2023-03-17T20:12:39.224Z,14.84
2023-03-17T20:15:12.854Z,14.80
2023-03-17T20:17:42.917Z,14.69
2023-03-17T20:20:12.924Z,14.69
2023-03-17T20:22:43.566Z,14.68
2023-03-17T20:25:12.301Z,14.61
2023-03-17T20:27:41.577Z,14.65
2023-03-17T20:30:12.143Z,14.67
2023-03-17T20:32:42.209Z,14.65
2023-03-17T20:35:11.064Z,14.67
2023-03-17T20:37:39.858Z,14.62
2023-03-17T20:40:10.873Z,14.68
2023-03-17T20:42:38.881Z,14.65
2023-03-17T20:45:08.861Z,14.46
2023-03-17T20:47:37.482Z,14.52
2023-03-17T20:50:08.727Z,14.55
2023-03-17T20:52:37.625Z,14.54
2023-03-17T20:55:06.905Z,14.48
2023-03-17T20:57:37.955Z,14.37
2023-03-17T21:00:10.718Z,14.19
2023-03-17T21:02:39.299Z,14.12
2023-03-17T21:05:09.413Z,14.20
2023-03-17T21:07:37.629Z,14.30
2023-03-17T21:10:06.525Z,14.38
2023-03-17T21:12:34.801Z,14.42
2023-03-17T21:15:03.542Z,14.42
2023-03-17T21:17:32.527Z,14.48
2023-03-17T21:20:01.694Z,14.51
2023-03-17T21:22:58.767Z,14.51
2023-03-17T21:25:26.877Z,14.52
2023-03-17T21:27:54.896Z,14.50
2023-03-17T21:30:22.943Z,14.56
2023-03-17T21:32:51.047Z,14.55
2023-03-17T21:35:19.383Z,14.53
2023-03-17T21:37:47.394Z,14.53
2023-03-17T21:40:17.314Z,14.54
2023-03-17T21:42:45.828Z,14.52
2023-03-17T21:45:14.212Z,14.51
2023-03-17T21:47:42.617Z,14.52
2023-03-17T21:50:12.325Z,14.56
2023-03-17T21:52:40.495Z,14.54
2023-03-17T21:55:10.181Z,14.54
2023-03-17T21:57:39.616Z,14.56
2023-03-17T22:00:10.596Z,14.57
2023-03-17T22:02:42.811Z,14.60
2023-03-17T22:05:11.858Z,14.57
2023-03-17T22:07:41.010Z,14.56
2023-03-17T22:10:11.329Z,14.57
2023-03-17T22:12:40.806Z,14.51
2023-03-17T22:15:10.545Z,14.52
2023-03-17T22:17:39.660Z,14.57
2023-03-17T22:20:09.088Z,14.52
2023-03-17T22:22:37.306Z,14.50
2023-03-17T22:25:06.985Z,14.45
2023-03-17T22:27:35.384Z,14.46
2023-03-17T22:30:06.312Z,14.46
2023-03-17T22:32:34.442Z,14.43
2023-03-17T22:35:02.751Z,14.43
2023-03-17T22:37:31.232Z,14.44
2023-03-17T22:40:02.410Z,14.43
2023-03-17T22:42:31.026Z,14.44
2023-03-17T22:44:59.348Z,14.41
2023-03-17T22:47:29.914Z,14.42
2023-03-17T22:49:57.930Z,14.43
2023-03-17T22:52:26.044Z,14.36
2023-03-17T22:54:54.269Z,14.35
2023-03-17T22:57:22.334Z,14.34
2023-03-17T22:59:52.166Z,14.34
2023-03-17T23:02:20.889Z,14.33
2023-03-17T23:04:50.556Z,14.29
2023-03-17T23:07:18.897Z,14.24
2023-03-17T23:09:47.100Z,14.24
2023-03-17T23:12:15.745Z,14.23
2023-03-17T23:14:43.911Z,14.22
2023-03-17T23:17:13.120Z,14.23
2023-03-17T23:19:41.138Z,14.21
2023-03-17T23:22:11.235Z,14.19
2023-03-17T23:24:39.296Z,14.18
2023-03-17T23:27:07.898Z,14.22
2023-03-17T23:29:35.907Z,14.21
2023-03-17T23:32:04.209Z,14.22
2023-03-17T23:34:32.550Z,14.19
2023-03-17T23:37:00.888Z,14.18
2023-03-17T23:39:30.268Z,14.20
2023-03-17T23:41:58.417Z,14.16
2023-03-17T23:44:27.197Z,14.12
2023-03-17T23:46:55.576Z,14.19
2023-03-17T23:49:23.630Z,14.18
2023-03-17T23:51:52.137Z,14.10
2023-03-17T23:54:20.279Z,14.08
2023-03-17T23:56:49.678Z,14.12
2023-03-17T23:59:17.741Z,14.09
